Time;durP1;ratioP1;P1;durP2;ratioP2;P2;SDS_P1;SDS_P2;PMS_P1;PMS_P2;Temp;Humidity;BMP_temperature;BMP_pressure;BME280_temperature;BME280_humidity;BME280_pressure;Samples;Min_cycle;Max_cycle;Signal;HPM_P1;HPM_P2
2023/07/30 00:01:01;;;;;;;8.80;0.90;;;;;;;-128.00;-1.00;-1.00;18874;295;7505427;-35
2023/07/30 00:03:27;;;;;;;1.60;0.90;;;;;;;-128.00;-1.00;-1.00;18893;339;7504843;-35
2023/07/30 00:05:54;;;;;;;3.40;1.10;;;;;;;-128.00;-1.00;-1.00;18894;295;7504610;-35
2023/07/30 00:08:20;;;;;;;8.20;0.80;;;;;;;-128.00;-1.00;-1.00;18499;294;7505439;-34
2023/07/30 00:10:46;;;;;;;5.20;1.10;;;;;;;-128.00;-1.00;-1.00;18489;295;7505042;-35
2023/07/30 00:13:11;;;;;;;0.90;0.50;;;;;;;-128.00;-1.00;-1.00;18478;339;7504904;-31
2023/07/30 00:15:37;;;;;;;3.60;1.00;;;;;;;-128.00;-1.00;-1.00;18858;295;7504841;-36
2023/07/30 00:18:03;;;;;;;2.90;0.90;;;;;;;-128.00;-1.00;-1.00;18879;294;7504771;-36
2023/07/30 00:20:30;;;;;;;2.90;0.90;;;;;;;-128.00;-1.00;-1.00;18864;295;7504907;-35
2023/07/30 00:22:56;;;;;;;2.30;0.90;;;;;;;-128.00;-1.00;-1.00;18894;295;7504299;-33
2023/07/30 00:25:23;;;;;;;4.20;1.30;;;;;;;-128.00;-1.00;-1.00;18855;294;7504972;-31
2023/07/30 00:27:49;;;;;;;1.80;0.80;;;;;;;-128.00;-1.00;-1.00;18899;295;7505724;-35
2023/07/30 00:30:15;;;;;;;12.00;1.40;;;;;;;-128.00;-1.00;-1.00;18865;295;7505095;-31
2023/07/30 00:32:43;;;;;;;3.10;1.50;;;;;;;-128.00;-1.00;-1.00;18887;295;7504204;-31
2023/07/30 00:35:10;;;;;;;1.30;0.70;;;;;;;-128.00;-1.00;-1.00;18473;294;7505173;-36
2023/07/30 01:17:32;;;;;;;2.30;1.70;;;;;;;-99.54;19.20;19750.13;19556;341;8046399;-32
2023/07/30 01:19:58;;;;;;;2.90;1.70;;;;;;;-128.00;-1.00;-1.00;18427;327;7504379;-33
2023/07/30 01:22:24;;;;;;;2.90;1.40;;;;;;;-128.00;-1.00;-1.00;18844;297;7504501;-31
2023/07/30 01:24:51;;;;;;;2.40;1.10;;;;;;;-128.00;-1.00;-1.00;18865;297;7505384;-37
2023/07/30 01:27:28;;;;;;;7.50;1.40;;;;;;;-128.00;-1.00;-1.00;18862;309;7505211;-33
2023/07/30 01:30:04;;;;;;;1.30;0.80;;;;;;;-128.00;-1.00;-1.00;18451;297;7504864;-33
2023/07/30 01:32:30;;;;;;;3.90;0.80;;;;;;;-128.00;-1.00;-1.00;18450;339;7505882;-37
2023/07/30 01:34:57;;;;;;;1.20;1.00;;;;;;;-128.00;-1.00;-1.00;18442;297;7504836;-33
2023/07/30 01:37:22;;;;;;;1.60;1.10;;;;;;;-128.00;-1.00;-1.00;18479;297;7504973;-37
2023/07/30 01:39:49;;;;;;;2.20;1.20;;;;;;;-128.00;-1.00;-1.00;18857;297;7504516;-37
2023/07/30 01:42:15;;;;;;;2.20;1.10;;;;;;;-128.00;-1.00;-1.00;18459;297;7504535;-32
2023/07/30 01:44:41;;;;;;;0.90;0.80;;;;;;;-128.00;-1.00;-1.00;18447;350;7504666;-37
2023/07/30 01:47:07;;;;;;;12.00;1.60;;;;;;;-128.00;-1.00;-1.00;18451;349;7505139;-33
2023/07/30 01:49:33;;;;;;;2.30;0.60;;;;;;;-128.00;-1.00;-1.00;18464;297;7505841;-35
2023/07/30 01:51:59;;;;;;;9.80;1.00;;;;;;;-128.00;-1.00;-1.00;18454;297;7505715;-37
2023/07/30 01:54:24;;;;;;;1.90;0.80;;;;;;;-128.00;-1.00;-1.00;18451;342;7506090;-36
2023/07/30 01:56:51;;;;;;;2.10;1.00;;;;;;;-128.00;-1.00;-1.00;18859;297;7504175;-35
2023/07/30 01:59:17;;;;;;;1.60;0.90;;;;;;;-128.00;-1.00;-1.00;18442;297;7504721;-32
2023/07/30 02:01:43;;;;;;;3.50;1.90;;;;;;;-128.00;-1.00;-1.00;18475;350;7506318;-36
2023/07/30 02:04:09;;;;;;;4.30;1.30;;;;;;;-128.00;-1.00;-1.00;18458;297;7504900;-35
2023/07/30 02:06:34;;;;;;;0.90;0.70;;;;;;;-128.00;-1.00;-1.00;18462;350;7505994;-32
2023/07/30 02:09:00;;;;;;;4.30;1.20;;;;;;;-128.00;-1.00;-1.00;18461;297;7504521;-32
2023/07/30 02:11:25;;;;;;;1.20;0.80;;;;;;;-128.00;-1.00;-1.00;18467;297;7504980;-32
2023/07/30 02:13:52;;;;;;;2.50;0.90;;;;;;;-128.00;-1.00;-1.00;18846;297;7504512;-31
2023/07/30 02:16:18;;;;;;;3.60;1.10;;;;;;;-128.00;-1.00;-1.00;18833;297;7504033;-31
2023/07/30 02:18:44;;;;;;;3.70;1.20;;;;;;;-128.00;-1.00;-1.00;18848;297;7504886;-36
2023/07/30 02:21:10;;;;;;;7.00;1.00;;;;;;;-128.00;-1.00;-1.00;18878;313;7504197;-32
2023/07/30 02:23:36;;;;;;;1.70;0.60;;;;;;;-128.00;-1.00;-1.00;18857;297;7505276;-34
2023/07/30 02:26:03;;;;;;;3.10;1.00;;;;;;;-128.00;-1.00;-1.00;18860;297;7504772;-36
2023/07/30 02:28:29;;;;;;;1.80;0.80;;;;;;;-128.00;-1.00;-1.00;18871;297;7505388;-36
2023/07/30 02:30:55;;;;;;;1.40;0.80;;;;;;;-128.00;-1.00;-1.00;18850;297;7505069;-35
2023/07/30 02:33:21;;;;;;;3.50;1.30;;;;;;;-128.00;-1.00;-1.00;18851;297;7505305;-35
2023/07/30 02:35:47;;;;;;;1.40;1.00;;;;;;;-128.00;-1.00;-1.00;18868;350;7505129;-31
2023/07/30 02:38:13;;;;;;;6.40;1.00;;;;;;;-128.00;-1.00;-1.00;18872;297;7504586;-35
2023/07/30 02:40:40;;;;;;;1.80;0.90;;;;;;;-128.00;-1.00;-1.00;18879;297;7505580;-32
2023/07/30 02:43:06;;;;;;;4.50;0.90;;;;;;;-128.00;-1.00;-1.00;18857;298;7504654;-35
2023/07/30 02:45:32;;;;;;;1.40;0.60;;;;;;;-128.00;-1.00;-1.00;18861;297;7504329;-35
2023/07/30 02:47:58;;;;;;;1.70;0.60;;;;;;;-128.00;-1.00;-1.00;18859;297;7504197;-37
2023/07/30 02:50:24;;;;;;;2.20;1.20;;;;;;;-128.00;-1.00;-1.00;18865;297;7505459;-33
2023/07/30 02:52:50;;;;;;;2.00;0.80;;;;;;;-128.00;-1.00;-1.00;18855;297;7504281;-35
2023/07/30 02:55:17;;;;;;;1.40;0.60;;;;;;;-128.00;-1.00;-1.00;18852;298;7504686;-31
2023/07/30 02:57:43;;;;;;;1.50;0.70;;;;;;;-128.00;-1.00;-1.00;18835;297;7504541;-34
2023/07/30 03:00:10;;;;;;;1.10;0.60;;;;;;;-128.00;-1.00;-1.00;18867;297;7504535;-33
2023/07/30 03:02:36;;;;;;;0.90;0.60;;;;;;;-128.00;-1.00;-1.00;18446;297;7505180;-33
2023/07/30 03:05:02;;;;;;;1.60;0.80;;;;;;;-128.00;-1.00;-1.00;18859;297;7505964;-35
2023/07/30 03:07:29;;;;;;;2.30;0.80;;;;;;;-128.00;-1.00;-1.00;18842;297;7505069;-31
2023/07/30 03:09:55;;;;;;;1.20;0.90;;;;;;;-128.00;-1.00;-1.00;18850;297;7505324;-31
2023/07/30 03:12:21;;;;;;;8.80;0.90;;;;;;;-128.00;-1.00;-1.00;18846;297;7504499;-31
2023/07/30 03:14:47;;;;;;;1.50;0.90;;;;;;;-128.00;-1.00;-1.00;18847;313;7504147;-35
2023/07/30 03:17:13;;;;;;;2.00;0.70;;;;;;;-128.00;-1.00;-1.00;18848;297;7504990;-32
2023/07/30 03:19:40;;;;;;;2.60;0.80;;;;;;;-128.00;-1.00;-1.00;18847;322;7505196;-31
2023/07/30 03:22:06;;;;;;;2.40;0.80;;;;;;;-128.00;-1.00;-1.00;18861;297;7504361;-35
2023/07/30 03:24:32;;;;;;;2.30;1.30;;;;;;;-128.00;-1.00;-1.00;18858;297;7505871;-35
2023/07/30 03:26:58;;;;;;;1.80;0.80;;;;;;;-128.00;-1.00;-1.00;18866;299;7505043;-31
2023/07/30 03:29:24;;;;;;;1.90;1.00;;;;;;;-128.00;-1.00;-1.00;18851;297;7504557;-33
2023/07/30 03:31:50;;;;;;;3.10;1.20;;;;;;;-128.00;-1.00;-1.00;18840;297;7505041;-31
2023/07/30 03:34:16;;;;;;;1.80;0.70;;;;;;;-128.00;-1.00;-1.00;18840;298;7504622;-31
2023/07/30 03:36:43;;;;;;;1.50;1.00;;;;;;;-128.00;-1.00;-1.00;18888;286;7505135;-35
2023/07/30 03:39:10;;;;;;;1.60;0.80;;;;;;;-128.00;-1.00;-1.00;18845;306;7505181;-35
2023/07/30 03:41:36;;;;;;;1.20;0.70;;;;;;;-128.00;-1.00;-1.00;18481;298;7504311;-32
2023/07/30 03:44:02;;;;;;;2.10;0.70;;;;;;;-128.00;-1.00;-1.00;18460;297;7504848;-32
2023/07/30 03:46:27;;;;;;;4.50;0.80;;;;;;;-128.00;-1.00;-1.00;18464;297;7504731;-36
2023/07/30 03:48:53;;;;;;;2.00;0.80;;;;;;;-128.00;-1.00;-1.00;18460;342;7505328;-36
2023/07/30 03:51:19;;;;;;;3.30;0.90;;;;;;;-128.00;-1.00;-1.00;18877;297;7504678;-36
2023/07/30 03:53:45;;;;;;;3.80;1.10;;;;;;;-128.00;-1.00;-1.00;18870;297;7504712;-36
2023/07/30 03:56:11;;;;;;;9.40;0.90;;;;;;;-128.00;-1.00;-1.00;18866;298;7504493;-32
2023/07/30 03:58:37;;;;;;;1.80;0.90;;;;;;;-128.00;-1.00;-1.00;18871;297;7504319;-32
2023/07/30 04:01:04;;;;;;;2.30;1.10;;;;;;;-128.00;-1.00;-1.00;18879;297;7505447;-32
2023/07/30 04:03:30;;;;;;;3.60;0.70;;;;;;;-128.00;-1.00;-1.00;18864;297;7504809;-32
2023/07/30 04:05:56;;;;;;;1.90;0.80;;;;;;;-128.00;-1.00;-1.00;18853;297;7504427;-35
2023/07/30 04:08:22;;;;;;;1.90;0.80;;;;;;;-128.00;-1.00;-1.00;18856;298;7504980;-31
2023/07/30 04:10:48;;;;;;;1.90;0.90;;;;;;;-128.00;-1.00;-1.00;18846;333;7503955;-31
2023/07/30 04:13:15;;;;;;;2.60;1.50;;;;;;;-128.00;-1.00;-1.00;18853;342;7505545;-37
2023/07/30 04:15:41;;;;;;;1.70;0.80;;;;;;;-128.00;-1.00;-1.00;18873;297;7504393;-31
2023/07/30 04:18:08;;;;;;;2.00;0.80;;;;;;;-128.00;-1.00;-1.00;18895;325;7504953;-31
2023/07/30 04:20:34;;;;;;;1.70;1.00;;;;;;;-128.00;-1.00;-1.00;18870;297;7504623;-32
2023/07/30 04:23:01;;;;;;;1.20;0.60;;;;;;;-128.00;-1.00;-1.00;18877;297;7505179;-36
2023/07/30 04:25:27;;;;;;;2.70;0.90;;;;;;;-128.00;-1.00;-1.00;18847;299;7504737;-32
2023/07/30 04:27:53;;;;;;;1.20;0.50;;;;;;;-128.00;-1.00;-1.00;18478;297;7506816;-32
2023/07/30 04:30:19;;;;;;;0.50;0.50;;;;;;;-128.00;-1.00;-1.00;18482;297;7504650;-36
2023/07/30 04:32:45;;;;;;;1.10;0.60;;;;;;;-128.00;-1.00;-1.00;18883;297;7505023;-32
2023/07/30 04:35:11;;;;;;;0.50;0.40;;;;;;;-128.00;-1.00;-1.00;18880;297;7504685;-36
2023/07/30 04:37:37;;;;;;;9.40;1.20;;;;;;;-128.00;-1.00;-1.00;18848;297;7506447;-35
2023/07/30 04:40:04;;;;;;;2.20;0.90;;;;;;;-128.00;-1.00;-1.00;18844;318;7504444;-35
2023/07/30 04:42:30;;;;;;;1.90;0.70;;;;;;;-128.00;-1.00;-1.00;18472;297;7505187;-36
2023/07/30 04:44:56;;;;;;;12.70;1.30;;;;;;;-128.00;-1.00;-1.00;18442;297;7506043;-32
2023/07/30 04:47:21;;;;;;;1.00;0.70;;;;;;;-128.00;-1.00;-1.00;18460;297;7506343;-36
2023/07/30 04:49:48;;;;;;;1.40;0.60;;;;;;;-128.00;-1.00;-1.00;18471;298;7505773;-36
2023/07/30 04:52:14;;;;;;;5.00;1.30;;;;;;;-128.00;-1.00;-1.00;18873;310;7504862;-36
2023/07/30 04:54:40;;;;;;;2.40;0.80;;;;;;;-128.00;-1.00;-1.00;18851;297;7504778;-36
2023/07/30 04:57:07;;;;;;;4.70;0.70;;;;;;;-128.00;-1.00;-1.00;18870;297;7505423;-32
2023/07/30 04:59:36;;;;;;;1.80;0.80;;;;;;;-128.00;-1.00;-1.00;18875;321;7504836;-35
2023/07/30 05:02:02;;;;;;;0.80;0.40;;;;;;;-128.00;-1.00;-1.00;18471;338;7506722;-36
2023/07/30 05:04:27;;;;;;;2.30;1.10;;;;;;;-128.00;-1.00;-1.00;18452;297;7506100;-36
2023/07/30 05:06:53;;;;;;;4.60;0.80;;;;;;;-128.00;-1.00;-1.00;18458;305;7505035;-36
2023/07/30 05:09:19;;;;;;;1.60;0.70;;;;;;;-128.00;-1.00;-1.00;18864;350;7505201;-31
2023/07/30 05:11:45;;;;;;;1.60;0.50;;;;;;;-128.00;-1.00;-1.00;18872;297;7505296;-32
2023/07/30 05:14:12;;;;;;;1.20;0.80;;;;;;;-128.00;-1.00;-1.00;18844;350;7505124;-35
2023/07/30 05:16:38;;;;;;;8.40;1.00;;;;;;;-128.00;-1.00;-1.00;18844;297;7504385;-32
2023/07/30 05:19:04;;;;;;;0.80;0.30;;;;;;;-128.00;-1.00;-1.00;18861;350;7505198;-32
2023/07/30 05:21:31;;;;;;;1.30;0.60;;;;;;;-128.00;-1.00;-1.00;18446;297;7505229;-32
2023/07/30 05:23:57;;;;;;;1.40;0.70;;;;;;;-128.00;-1.00;-1.00;18877;342;7504434;-32
2023/07/30 05:26:23;;;;;;;1.60;0.70;;;;;;;-128.00;-1.00;-1.00;18872;338;7504410;-33
2023/07/30 05:28:49;;;;;;;0.60;0.50;;;;;;;-128.00;-1.00;-1.00;18854;297;7505065;-32
2023/07/30 05:31:15;;;;;;;2.10;0.70;;;;;;;-128.00;-1.00;-1.00;18863;297;7504780;-36
2023/07/30 05:33:41;;;;;;;1.10;0.50;;;;;;;-128.00;-1.00;-1.00;18841;297;7504448;-36
2023/07/30 05:36:08;;;;;;;5.10;1.30;;;;;;;-128.00;-1.00;-1.00;18885;297;7504761;-36
2023/07/30 05:38:34;;;;;;;4.10;0.90;;;;;;;-128.00;-1.00;-1.00;18872;297;7504696;-33
2023/07/30 05:41:00;;;;;;;4.30;0.60;;;;;;;-128.00;-1.00;-1.00;18889;297;7504476;-36
2023/07/30 05:43:26;;;;;;;1.40;1.00;;;;;;;-128.00;-1.00;-1.00;18846;297;7505774;-34
2023/07/30 05:45:53;;;;;;;1.10;0.80;;;;;;;-128.00;-1.00;-1.00;18882;297;7504311;-36
2023/07/30 05:48:19;;;;;;;1.00;0.60;;;;;;;-128.00;-1.00;-1.00;18854;321;7505506;-37
2023/07/30 05:50:45;;;;;;;1.80;0.80;;;;;;;-128.00;-1.00;-1.00;18842;322;7504954;-33
2023/07/30 05:53:11;;;;;;;1.60;0.90;;;;;;;-128.00;-1.00;-1.00;18857;297;7504916;-34
2023/07/30 05:55:38;;;;;;;4.60;0.60;;;;;;;-128.00;-1.00;-1.00;18867;298;7504673;-36
2023/07/30 05:58:04;;;;;;;7.60;0.90;;;;;;;-128.00;-1.00;-1.00;18854;297;7504444;-36
2023/07/30 06:00:30;;;;;;;1.90;1.30;;;;;;;-128.00;-1.00;-1.00;18876;297;7504569;-33
2023/07/30 06:02:56;;;;;;;1.60;0.90;;;;;;;-128.00;-1.00;-1.00;18857;297;7505388;-36
2023/07/30 06:05:22;;;;;;;3.10;1.40;;;;;;;-128.00;-1.00;-1.00;18862;297;7504576;-32
2023/07/30 06:07:49;;;;;;;2.70;1.40;;;;;;;-128.00;-1.00;-1.00;18869;297;7505500;-32
2023/07/30 06:10:15;;;;;;;1.20;0.80;;;;;;;-128.00;-1.00;-1.00;18850;297;7504560;-35
2023/07/30 06:12:41;;;;;;;0.90;0.70;;;;;;;-128.00;-1.00;-1.00;18880;297;7505023;-36
2023/07/30 06:15:09;;;;;;;2.30;0.80;;;;;;;-128.00;-1.00;-1.00;18859;297;7505041;-36
2023/07/30 06:17:34;;;;;;;1.10;0.90;;;;;;;-128.00;-1.00;-1.00;18442;297;7505461;-32
2023/07/30 06:20:00;;;;;;;2.20;1.10;;;;;;;-128.00;-1.00;-1.00;18451;297;7505141;-32
2023/07/30 06:22:26;;;;;;;1.00;0.70;;;;;;;-128.00;-1.00;-1.00;18458;298;7506936;-33
2023/07/30 06:24:52;;;;;;;1.60;0.50;;;;;;;-128.00;-1.00;-1.00;18843;299;7504360;-33
2023/07/30 06:27:18;;;;;;;1.20;0.90;;;;;;;-128.00;-1.00;-1.00;18885;297;7504427;-33
2023/07/30 06:29:44;;;;;;;1.40;0.50;;;;;;;-128.00;-1.00;-1.00;18884;297;7504841;-32
2023/07/30 06:32:10;;;;;;;0.80;0.60;;;;;;;-128.00;-1.00;-1.00;18853;297;7505177;-36
2023/07/30 06:34:36;;;;;;;1.00;0.70;;;;;;;-128.00;-1.00;-1.00;18855;297;7505381;-36
2023/07/30 06:37:03;;;;;;;3.60;1.10;;;;;;;-128.00;-1.00;-1.00;18855;297;7504198;-37
2023/07/30 06:39:29;;;;;;;1.60;0.80;;;;;;;-128.00;-1.00;-1.00;18441;297;7504648;-32
2023/07/30 06:41:54;;;;;;;3.50;1.20;;;;;;;-128.00;-1.00;-1.00;18451;350;7507593;-36
2023/07/30 06:44:20;;;;;;;1.10;0.70;;;;;;;-128.00;-1.00;-1.00;18440;297;7504601;-32
2023/07/30 06:46:45;;;;;;;0.90;0.70;;;;;;;-128.00;-1.00;-1.00;18449;350;7504477;-36
2023/07/30 06:49:11;;;;;;;1.40;0.70;;;;;;;-128.00;-1.00;-1.00;18458;297;7506256;-32
2023/07/30 06:51:37;;;;;;;1.40;0.90;;;;;;;-128.00;-1.00;-1.00;18858;297;7505095;-32
2023/07/30 06:54:03;;;;;;;1.10;0.80;;;;;;;-128.00;-1.00;-1.00;18880;297;7504393;-35
2023/07/30 06:56:30;;;;;;;1.90;0.90;;;;;;;-128.00;-1.00;-1.00;18844;306;7504334;-31
2023/07/30 06:58:56;;;;;;;1.30;0.80;;;;;;;-128.00;-1.00;-1.00;18866;297;7504355;-32
2023/07/30 07:01:22;;;;;;;2.40;0.90;;;;;;;-128.00;-1.00;-1.00;18859;350;7504368;-32
2023/07/30 07:03:49;;;;;;;1.50;1.00;;;;;;;-128.00;-1.00;-1.00;18848;297;7504578;-32
2023/07/30 07:06:15;;;;;;;1.80;1.10;;;;;;;-128.00;-1.00;-1.00;18867;297;7505067;-32
2023/07/30 07:08:41;;;;;;;1.30;0.90;;;;;;;-128.00;-1.00;-1.00;18854;297;7505180;-32
2023/07/30 07:11:07;;;;;;;1.40;0.80;;;;;;;-128.00;-1.00;-1.00;18871;318;7504968;-35
2023/07/30 07:13:34;;;;;;;1.80;0.90;;;;;;;-128.00;-1.00;-1.00;18851;342;7504293;-36
2023/07/30 07:16:00;;;;;;;2.00;1.70;;;;;;;-128.00;-1.00;-1.00;18870;297;7505311;-36
2023/07/30 07:18:26;;;;;;;8.00;3.40;;;;;;;-128.00;-1.00;-1.00;18856;297;7505236;-36
2023/07/30 07:20:53;;;;;;;2.00;0.80;;;;;;;-128.00;-1.00;-1.00;18872;297;7504832;-32
2023/07/30 07:23:19;;;;;;;2.60;2.00;;;;;;;-128.00;-1.00;-1.00;18866;297;7504423;-32
2023/07/30 07:25:45;;;;;;;1.00;0.70;;;;;;;-128.00;-1.00;-1.00;18878;322;7504548;-36
2023/07/30 07:28:11;;;;;;;1.40;0.90;;;;;;;-128.00;-1.00;-1.00;18860;297;7504824;-32
2023/07/30 07:30:37;;;;;;;3.10;0.70;;;;;;;-128.00;-1.00;-1.00;18858;342;7504469;-32
2023/07/30 07:33:05;;;;;;;2.60;0.90;;;;;;;-128.00;-1.00;-1.00;18847;350;7504831;-33
2023/07/30 07:35:31;;;;;;;0.80;0.70;;;;;;;-128.00;-1.00;-1.00;18480;322;7505328;-32
2023/07/30 07:37:57;;;;;;;1.80;0.70;;;;;;;-128.00;-1.00;-1.00;18471;313;7504588;-35
2023/07/30 07:40:23;;;;;;;1.70;0.90;;;;;;;-128.00;-1.00;-1.00;18476;298;7505339;-36
2023/07/30 07:42:49;;;;;;;2.50;0.80;;;;;;;-128.00;-1.00;-1.00;18448;338;7506559;-36
2023/07/30 07:45:14;;;;;;;1.10;0.70;;;;;;;-128.00;-1.00;-1.00;18441;297;7504548;-36
2023/07/30 07:47:40;;;;;;;1.90;0.90;;;;;;;-128.00;-1.00;-1.00;18832;297;7504255;-36
2023/07/30 07:50:07;;;;;;;1.00;0.70;;;;;;;-128.00;-1.00;-1.00;18846;313;7504761;-33
2023/07/30 07:52:32;;;;;;;7.40;0.60;;;;;;;-128.00;-1.00;-1.00;18443;297;7505637;-33
2023/07/30 07:54:58;;;;;;;1.10;0.50;;;;;;;-128.00;-1.00;-1.00;18451;297;7506077;-37
2023/07/30 07:57:25;;;;;;;7.30;1.30;;;;;;;-128.00;-1.00;-1.00;18460;297;7504816;-32
2023/07/30 07:59:51;;;;;;;0.70;0.60;;;;;;;-128.00;-1.00;-1.00;18458;298;7506360;-36
2023/07/30 08:02:16;;;;;;;0.60;0.50;;;;;;;-128.00;-1.00;-1.00;18474;297;7505867;-36
2023/07/30 08:04:42;;;;;;;0.50;0.50;;;;;;;-128.00;-1.00;-1.00;18440;342;7505823;-32
2023/07/30 08:07:08;;;;;;;1.30;0.80;;;;;;;-128.00;-1.00;-1.00;18438;297;7504591;-32
2023/07/30 08:09:34;;;;;;;2.60;1.10;;;;;;;-128.00;-1.00;-1.00;18849;297;7504406;-34
2023/07/30 08:12:03;;;;;;;1.20;1.10;;;;;;;-128.00;-1.00;-1.00;18842;298;7505387;-36
2023/07/30 08:14:29;;;;;;;1.70;0.90;;;;;;;-128.00;-1.00;-1.00;18487;297;7506523;-32
2023/07/30 08:16:55;;;;;;;1.30;0.70;;;;;;;-128.00;-1.00;-1.00;18484;298;7504148;-32
2023/07/30 08:19:21;;;;;;;10.80;3.30;;;;;;;-128.00;-1.00;-1.00;18464;297;7506244;-32
2023/07/30 08:21:46;;;;;;;3.90;1.60;;;;;;;-128.00;-1.00;-1.00;18454;350;7504932;-36
2023/07/30 08:24:12;;;;;;;0.60;0.60;;;;;;;-128.00;-1.00;-1.00;18456;297;7505994;-32
2023/07/30 08:26:38;;;;;;;0.70;0.60;;;;;;;-128.00;-1.00;-1.00;18864;297;7504503;-32
2023/07/30 08:29:06;;;;;;;3.10;1.20;;;;;;;-128.00;-1.00;-1.00;18853;297;7504894;-32
2023/07/30 08:31:31;;;;;;;3.00;0.90;;;;;;;-128.00;-1.00;-1.00;18481;297;7504554;-32
2023/07/30 08:33:57;;;;;;;0.70;0.60;;;;;;;-128.00;-1.00;-1.00;18466;297;7504526;-32
2023/07/30 08:36:23;;;;;;;2.60;0.90;;;;;;;-128.00;-1.00;-1.00;18443;298;7506141;-33
2023/07/30 08:38:48;;;;;;;1.60;0.60;;;;;;;-128.00;-1.00;-1.00;18444;333;7506411;-33
2023/07/30 08:41:14;;;;;;;1.90;1.20;;;;;;;-128.00;-1.00;-1.00;18487;297;7506149;-33
2023/07/30 08:43:40;;;;;;;0.80;0.50;;;;;;;-128.00;-1.00;-1.00;18465;297;7505789;-32
2023/07/30 08:46:06;;;;;;;4.10;0.60;;;;;;;-128.00;-1.00;-1.00;18867;297;7504756;-32
2023/07/30 08:48:32;;;;;;;0.80;0.60;;;;;;;-128.00;-1.00;-1.00;18865;297;7504849;-36
2023/07/30 08:50:58;;;;;;;1.70;1.00;;;;;;;-128.00;-1.00;-1.00;18831;333;7504391;-32
2023/07/30 08:53:26;;;;;;;1.70;1.10;;;;;;;-128.00;-1.00;-1.00;18838;298;7504499;-36
2023/07/30 08:55:54;;;;;;;0.70;0.60;;;;;;;-128.00;-1.00;-1.00;18458;297;7505015;-36
2023/07/30 08:58:20;;;;;;;1.30;1.00;;;;;;;-128.00;-1.00;-1.00;18434;322;7505054;-36
2023/07/30 09:00:45;;;;;;;0.80;0.70;;;;;;;-128.00;-1.00;-1.00;18469;350;7504489;-32
2023/07/30 09:03:11;;;;;;;0.70;0.70;;;;;;;-128.00;-1.00;-1.00;18470;297;7506826;-36
2023/07/30 09:05:37;;;;;;;0.50;0.50;;;;;;;-128.00;-1.00;-1.00;18448;322;7504563;-32
2023/07/30 09:08:03;;;;;;;1.90;0.70;;;;;;;-128.00;-1.00;-1.00;18457;297;7507274;-32
2023/07/30 09:10:28;;;;;;;2.00;1.00;;;;;;;-128.00;-1.00;-1.00;18465;325;7504514;-32
2023/07/30 09:12:55;;;;;;;1.90;0.70;;;;;;;-128.00;-1.00;-1.00;18458;342;7506011;-36
2023/07/30 09:15:34;;;;;;;5.20;0.90;;;;;;;-128.00;-1.00;-1.00;18447;297;7505144;-33
2023/07/30 09:18:00;;;;;;;1.30;0.90;;;;;;;-128.00;-1.00;-1.00;18443;301;7506029;-32
2023/07/30 09:20:27;;;;;;;1.00;0.80;;;;;;;-128.00;-1.00;-1.00;17940;297;7504945;-36
2023/07/30 09:22:52;;;;;;;0.90;0.60;;;;;;;-128.00;-1.00;-1.00;18467;297;7506090;-37
2023/07/30 09:25:20;;;;;;;1.40;0.60;;;;;;;-128.00;-1.00;-1.00;18444;297;7505454;-33
2023/07/30 09:27:52;;;;;;;1.80;1.20;;;;;;;-128.00;-1.00;-1.00;18465;310;7505316;-33
2023/07/30 09:30:24;;;;;;;0.90;0.70;;;;;;;-128.00;-1.00;-1.00;18465;297;7506032;-32
2023/07/30 09:32:54;;;;;;;1.20;1.10;;;;;;;-128.00;-1.00;-1.00;18464;338;7505045;-32
2023/07/30 09:35:20;;;;;;;0.40;0.40;;;;;;;-128.00;-1.00;-1.00;18454;298;7504654;-32
2023/07/30 09:37:46;;;;;;;1.90;0.70;;;;;;;-128.00;-1.00;-1.00;18444;297;7504812;-32
2023/07/30 09:40:13;;;;;;;0.50;0.50;;;;;;;-128.00;-1.00;-1.00;18442;297;7506009;-36
2023/07/30 09:42:42;;;;;;;1.90;0.50;;;;;;;-128.00;-1.00;-1.00;18460;297;7504884;-32
2023/07/30 09:45:20;;;;;;;0.70;0.60;;;;;;;-128.00;-1.00;-1.00;18488;297;7505549;-32
2023/07/30 09:47:50;;;;;;;1.40;0.80;;;;;;;-128.00;-1.00;-1.00;18483;350;7504690;-32
2023/07/30 09:50:16;;;;;;;2.00;0.80;;;;;;;-128.00;-1.00;-1.00;18463;297;7506240;-38
2023/07/30 09:52:43;;;;;;;0.40;0.40;;;;;;;-128.00;-1.00;-1.00;18459;297;7504952;-33
2023/07/30 09:55:08;;;;;;;0.70;0.50;;;;;;;-128.00;-1.00;-1.00;18450;297;7504610;-37
2023/07/30 09:57:34;;;;;;;4.80;0.90;;;;;;;-128.00;-1.00;-1.00;18459;297;7505424;-32
2023/07/30 10:00:02;;;;;;;2.50;0.60;;;;;;;-128.00;-1.00;-1.00;18473;305;7505987;-36
2023/07/30 10:02:31;;;;;;;0.90;0.80;;;;;;;-128.00;-1.00;-1.00;18444;298;7504617;-32
2023/07/30 10:04:57;;;;;;;0.70;0.60;;;;;;;-128.00;-1.00;-1.00;18469;317;7504200;-32
2023/07/30 10:07:23;;;;;;;1.30;0.80;;;;;;;-128.00;-1.00;-1.00;18454;297;7505528;-33
2023/07/30 10:09:50;;;;;;;1.40;1.00;;;;;;;-128.00;-1.00;-1.00;18465;350;7505929;-33
2023/07/30 10:12:16;;;;;;;0.40;0.40;;;;;;;-128.00;-1.00;-1.00;18452;342;7504789;-33
2023/07/30 10:14:42;;;;;;;1.00;0.50;;;;;;;-128.00;-1.00;-1.00;18467;297;7504722;-32
2023/07/30 10:17:10;;;;;;;1.00;0.60;;;;;;;-128.00;-1.00;-1.00;18466;297;7504629;-35
2023/07/30 10:19:36;;;;;;;3.40;0.80;;;;;;;-128.00;-1.00;-1.00;18441;297;7504518;-32
2023/07/30 10:22:29;;;;;;;2.50;0.80;;;;;;;-128.00;-1.00;-1.00;18451;298;7505327;-36
2023/07/30 10:24:57;;;;;;;0.80;0.60;;;;;;;-128.00;-1.00;-1.00;18448;297;7504344;-32
2023/07/30 10:27:24;;;;;;;0.60;0.30;;;;;;;-128.00;-1.00;-1.00;18445;310;7505186;-35
2023/07/30 10:29:51;;;;;;;0.60;0.60;;;;;;;-128.00;-1.00;-1.00;18469;313;7505981;-35
2023/07/30 10:32:16;;;;;;;1.50;1.10;;;;;;;-128.00;-1.00;-1.00;18464;297;7505262;-35
2023/07/30 10:34:47;;;;;;;0.70;0.50;;;;;;;-128.00;-1.00;-1.00;18868;297;7504599;-32
2023/07/30 10:37:19;;;;;;;1.00;0.70;;;;;;;-128.00;-1.00;-1.00;18463;297;7504783;-32
2023/07/30 10:39:47;;;;;;;0.60;0.60;;;;;;;-128.00;-1.00;-1.00;18450;297;7507041;-32
2023/07/30 10:42:14;;;;;;;1.50;0.50;;;;;;;-128.00;-1.00;-1.00;18491;349;7504529;-36
2023/07/30 10:44:43;;;;;;;3.50;1.50;;;;;;;-128.00;-1.00;-1.00;18444;338;7505823;-36
2023/07/30 10:47:08;;;;;;;0.90;0.60;;;;;;;-128.00;-1.00;-1.00;18432;298;7506692;-36
2023/07/30 10:49:38;;;;;;;3.50;0.70;;;;;;;-128.00;-1.00;-1.00;18461;297;7505335;-36
2023/07/30 10:52:04;;;;;;;10.80;0.70;;;;;;;-128.00;-1.00;-1.00;18447;297;7506454;-32
2023/07/30 10:54:34;;;;;;;1.70;0.90;;;;;;;-128.00;-1.00;-1.00;18460;305;7506374;-36
2023/07/30 10:57:00;;;;;;;0.90;0.60;;;;;;;-128.00;-1.00;-1.00;18471;297;7504268;-32
2023/07/30 10:59:25;;;;;;;0.90;0.80;;;;;;;-128.00;-1.00;-1.00;18455;350;7504929;-32
2023/07/30 11:01:52;;;;;;;0.60;0.60;;;;;;;-128.00;-1.00;-1.00;18466;297;7504465;-36
2023/07/30 11:04:19;;;;;;;2.00;0.40;;;;;;;-128.00;-1.00;-1.00;18475;297;7504394;-36
2023/07/30 11:06:49;;;;;;;1.40;0.40;;;;;;;-128.00;-1.00;-1.00;18443;297;7505215;-32
2023/07/30 11:09:22;;;;;;;0.90;0.60;;;;;;;-128.00;-1.00;-1.00;18461;297;7504537;-32
2023/07/30 11:11:48;;;;;;;0.80;0.70;;;;;;;-128.00;-1.00;-1.00;18463;297;7504952;-34
2023/07/30 11:14:19;;;;;;;1.70;0.40;;;;;;;-128.00;-1.00;-1.00;18461;297;7504318;-33
2023/07/30 11:16:51;;;;;;;;;;;;;;;-128.00;-1.00;-1.00;18452;298;7506597;-36
2023/07/30 11:19:17;;;;;;;1.10;0.70;;;;;;;-128.00;-1.00;-1.00;18454;297;7505838;-35
2023/07/30 11:21:47;;;;;;;1.20;0.50;;;;;;;-128.00;-1.00;-1.00;18467;297;7504555;-35
2023/07/30 11:24:13;;;;;;;1.00;0.80;;;;;;;-128.00;-1.00;-1.00;18456;297;7506043;-36
2023/07/30 11:26:38;;;;;;;0.70;0.50;;;;;;;-128.00;-1.00;-1.00;18465;297;7504340;-32
2023/07/30 11:29:17;;;;;;;0.60;0.60;;;;;;;-128.00;-1.00;-1.00;18452;297;7506718;-36
2023/07/30 11:31:43;;;;;;;7.30;0.80;;;;;;;-128.00;-1.00;-1.00;18454;298;7505808;-34
2023/07/30 11:34:09;;;;;;;2.00;0.90;;;;;;;-128.00;-1.00;-1.00;18466;297;7505840;-36
2023/07/30 11:36:35;;;;;;;0.90;0.80;;;;;;;-128.00;-1.00;-1.00;18474;297;7506256;-35
2023/07/30 11:39:01;;;;;;;2.40;1.00;;;;;;;-128.00;-1.00;-1.00;18454;310;7504958;-31
2023/07/30 11:41:26;;;;;;;1.70;0.70;;;;;;;-128.00;-1.00;-1.00;18485;297;7506145;-31
2023/07/30 11:43:52;;;;;;;0.40;0.30;;;;;;;-128.00;-1.00;-1.00;18440;297;7504295;-32
2023/07/30 11:46:22;;;;;;;3.10;0.60;;;;;;;-128.00;-1.00;-1.00;18480;297;7505002;-32
2023/07/30 11:48:50;;;;;;;0.90;0.70;;;;;;;-128.00;-1.00;-1.00;18474;342;7505086;-32
2023/07/30 11:51:21;;;;;;;0.70;0.60;;;;;;;-128.00;-1.00;-1.00;18494;297;7505113;-36
2023/07/30 11:53:51;;;;;;;0.80;0.60;;;;;;;-128.00;-1.00;-1.00;18457;350;7504439;-36
2023/07/30 11:56:25;;;;;;;0.70;0.70;;;;;;;-128.00;-1.00;-1.00;18456;322;7504635;-36
2023/07/30 11:58:55;;;;;;;0.90;0.70;;;;;;;-128.00;-1.00;-1.00;18476;297;7504096;-32
2023/07/30 12:01:21;;;;;;;0.70;0.50;;;;;;;-128.00;-1.00;-1.00;18461;349;7506208;-36
2023/07/30 12:03:47;;;;;;;1.00;0.70;;;;;;;-128.00;-1.00;-1.00;18846;298;7504251;-35
2023/07/30 12:06:13;;;;;;;1.50;1.10;;;;;;;-128.00;-1.00;-1.00;18847;297;7505338;-33
2023/07/30 12:08:39;;;;;;;0.70;0.50;;;;;;;-128.00;-1.00;-1.00;18895;297;7506484;-35
2023/07/30 12:11:08;;;;;;;1.30;0.90;;;;;;;-128.00;-1.00;-1.00;18876;297;7503912;-32